Time;durP1;ratioP1;P1;durP2;ratioP2;P2;SDS_P1;SDS_P2;PMS_P1;PMS_P2;Temp;Humidity;BMP_temperature;BMP_pressure;BME280_temperature;BME280_humidity;BME280_pressure;Samples;Min_cycle;Max_cycle;Signal;HPM_P1;HPM_P2
2022/02/01 00:02:17;;;;;;;;;;;16.80;99.90;;;;;;5061162;28;1242;-48
2022/02/01 00:04:54;;;;;;;;;;;16.50;99.90;;;;;;5056416;28;939;-47
2022/02/01 00:07:49;;;;;;;;;;;16.10;99.90;;;;;;5056061;28;1050;-48
2022/02/01 00:10:24;;;;;;;;;;;15.70;99.90;;;;;;5058386;28;1297;-48
2022/02/01 00:13:05;;;;;;;;;;;15.70;99.90;;;;;;5058257;28;807;-48
2022/02/01 00:18:34;;;;;;;;;;;15.90;99.90;;;;;;5055239;28;1266;-48
2022/02/01 00:37:34;;;;;;;;;;;15.80;99.90;;;;;;5058286;28;775;-48
2022/02/01 00:40:06;;;;;;;;;;;15.80;99.90;;;;;;5057376;28;1887;-55
2022/02/01 00:42:32;;;;;;;;;;;15.80;99.90;;;;;;5057209;28;963;-55
2022/02/01 00:44:58;;;;;;;;;;;15.70;99.90;;;;;;5054571;28;867;-55
2022/02/01 00:47:24;;;;;;;;;;;15.70;99.90;;;;;;5057792;28;871;-57
2022/02/01 00:49:51;;;;;;;;;;;15.70;99.90;;;;;;5057728;28;957;-55
2022/02/01 00:52:17;;;;;;;;;;;15.70;99.90;;;;;;5057829;28;829;-55
2022/02/01 00:54:43;;;;;;;;;;;15.60;99.90;;;;;;5057951;28;757;-56
2022/02/01 00:57:11;;;;;;;;;;;15.60;99.90;;;;;;5056711;28;1247;-56
2022/02/01 00:59:38;;;;;;;;;;;15.60;99.90;;;;;;5056368;28;1971;-56
2022/02/01 01:02:05;;;;;;;;;;;15.50;99.90;;;;;;5057536;28;1033;-56
2022/02/01 01:04:31;;;;;;;;;;;15.50;99.90;;;;;;5056407;28;895;-56
2022/02/01 01:06:58;;;;;;;;;;;15.50;99.90;;;;;;5057493;28;806;-55
2022/02/01 01:09:24;;;;;;;;;;;15.40;99.90;;;;;;5039985;28;1689;-56
2022/02/01 01:11:54;;;;;;;;;;;15.40;99.90;;;;;;5055983;28;1107;-48
2022/02/01 01:44:38;;;;;;;;;;;15.20;99.90;;;;;;5056248;28;837;-48
2022/02/01 01:55:20;;;;;;;;;;;15.00;99.90;;;;;;5056558;28;832;-48
2022/02/01 01:57:46;;;;;;;;;;;15.00;99.90;;;;;;5055620;28;894;-53
2022/02/01 02:00:41;;;;;;;;;;;14.90;99.90;;;;;;5056188;28;1968;-54
2022/02/01 02:03:07;;;;;;;;;;;14.90;99.90;;;;;;5061042;28;1723;-55
2022/02/01 02:05:33;;;;;;;;;;;14.90;99.90;;;;;;5057117;28;852;-48
2022/02/01 02:07:59;;;;;;;;;;;14.90;99.90;;;;;;5056330;28;845;-48
2022/02/01 02:10:32;;;;;;;;;;;14.90;99.90;;;;;;5056544;28;943;-49
2022/02/01 02:15:55;;;;;;;;;;;14.80;99.90;;;;;;5056412;28;809;-55
2022/02/01 02:18:22;;;;;;;;;;;14.80;99.90;;;;;;5055629;28;824;-54
2022/02/01 02:20:49;;;;;;;;;;;14.80;99.90;;;;;;5055862;28;1906;-55
2022/02/01 02:23:15;;;;;;;;;;;14.70;99.90;;;;;;5056266;28;871;-55
2022/02/01 02:25:42;;;;;;;;;;;14.70;99.90;;;;;;5056047;28;774;-55
2022/02/01 02:28:12;;;;;;;;;;;14.70;99.90;;;;;;5055881;28;922;-55
2022/02/01 02:30:41;;;;;;;;;;;14.70;99.90;;;;;;5055427;28;995;-55
2022/02/01 02:33:14;;;;;;;;;;;14.60;99.90;;;;;;5056115;28;781;-56
2022/02/01 02:35:52;;;;;;;;;;;14.70;99.90;;;;;;5054639;28;929;-55
2022/02/01 02:38:27;;;;;;;;;;;14.60;99.90;;;;;;5055373;28;900;-55
2022/02/01 02:46:03;;;;;;;;;;;14.50;99.90;;;;;;5055720;28;1234;-48
2022/02/01 02:48:29;;;;;;;;;;;14.50;99.90;;;;;;5056047;28;927;-48
2022/02/01 02:50:55;;;;;;;;;;;14.50;99.90;;;;;;5052072;28;831;-55
2022/02/01 02:53:21;;;;;;;;;;;14.50;99.90;;;;;;5055733;28;845;-55
2022/02/01 02:55:47;;;;;;;;;;;14.40;99.90;;;;;;5054777;28;1297;-55
2022/02/01 02:58:13;;;;;;;;;;;14.40;99.90;;;;;;5053454;28;1432;-55
2022/02/01 03:00:41;;;;;;;;;;;14.40;99.90;;;;;;5055356;28;2023;-55
2022/02/01 03:03:07;;;;;;;;;;;14.40;99.90;;;;;;5055404;28;841;-54
2022/02/01 03:05:34;;;;;;;;;;;14.40;99.90;;;;;;5055996;28;801;-55
2022/02/01 03:08:00;;;;;;;;;;;14.40;99.90;;;;;;5055751;28;774;-56
2022/02/01 03:10:27;;;;;;;;;;;14.30;99.90;;;;;;5055282;28;843;-55
2022/02/01 03:15:59;;;;;;;;;;;14.30;99.90;;;;;;5011918;28;1331;-55
2022/02/01 03:21:12;;;;;;;;;;;14.30;99.90;;;;;;5055183;28;1955;-55
2022/02/01 03:23:45;;;;;;;;;;;14.20;99.90;;;;;;5055578;28;903;-55
2022/02/01 03:26:13;;;;;;;;;;;14.20;99.90;;;;;;5055093;28;802;-55
2022/02/01 03:28:40;;;;;;;;;;;14.20;99.90;;;;;;5055296;28;823;-55
2022/02/01 03:31:07;;;;;;;;;;;14.20;99.90;;;;;;5055372;28;906;-55
2022/02/01 03:33:33;;;;;;;;;;;14.20;99.90;;;;;;5055115;28;773;-55
2022/02/01 03:35:59;;;;;;;;;;;14.10;99.90;;;;;;5055275;28;932;-55
2022/02/01 03:38:25;;;;;;;;;;;14.10;99.90;;;;;;5054827;28;999;-55
2022/02/01 03:40:51;;;;;;;;;;;14.10;99.90;;;;;;5054985;28;1890;-55
2022/02/01 03:43:19;;;;;;;;;;;14.10;99.90;;;;;;5053303;28;923;-56
2022/02/01 03:45:45;;;;;;;;;;;14.10;99.90;;;;;;5055262;28;773;-55
2022/02/01 03:48:11;;;;;;;;;;;14.00;99.90;;;;;;5054543;28;854;-56
2022/02/01 03:50:36;;;;;;;;;;;14.00;99.90;;;;;;5055217;28;1539;-55
2022/02/01 03:53:02;;;;;;;;;;;14.00;99.90;;;;;;5055316;28;781;-55
2022/02/01 03:55:28;;;;;;;;;;;14.00;99.90;;;;;;5055058;28;815;-55
2022/02/01 03:57:54;;;;;;;;;;;14.00;99.90;;;;;;5055428;28;990;-55
2022/02/01 04:00:21;;;;;;;;;;;13.90;99.90;;;;;;5053936;28;1894;-55
2022/02/01 04:02:46;;;;;;;;;;;14.00;99.90;;;;;;5054957;28;770;-55
2022/02/01 04:05:14;;;;;;;;;;;13.90;99.90;;;;;;5054880;28;933;-55
2022/02/01 04:07:45;;;;;;;;;;;13.90;99.90;;;;;;5054907;28;861;-55
2022/02/01 04:10:18;;;;;;;;;;;13.90;99.90;;;;;;5057445;28;983;-56
2022/02/01 04:12:44;;;;;;;;;;;13.90;99.90;;;;;;5058983;28;791;-55
2022/02/01 04:15:10;;;;;;;;;;;13.90;99.90;;;;;;5057899;28;1119;-48
2022/02/01 04:17:38;;;;;;;;;;;13.80;99.90;;;;;;5058777;28;810;-48
2022/02/01 04:20:04;;;;;;;;;;;13.80;99.90;;;;;;5058746;28;1905;-48
2022/02/01 04:22:30;;;;;;;;;;;13.80;99.90;;;;;;5058227;28;942;-48
2022/02/01 04:24:56;;;;;;;;;;;13.80;99.90;;;;;;5057902;28;794;-48
2022/02/01 04:29:56;;;;;;;;;;;13.80;99.90;;;;;;5057982;28;1028;-48
2022/02/01 04:32:22;;;;;;;;;;;13.70;99.90;;;;;;5057500;28;919;-48
2022/02/01 04:34:56;;;;;;;;;;;13.70;99.90;;;;;;5058318;28;856;-48
2022/02/01 04:37:23;;;;;;;;;;;13.70;99.90;;;;;;5058633;28;738;-48
2022/02/01 04:39:50;;;;;;;;;;;13.70;99.90;;;;;;5057829;28;1940;-48
2022/02/01 04:42:17;;;;;;;;;;;13.60;99.90;;;;;;5056840;28;887;-48
2022/02/01 04:44:43;;;;;;;;;;;13.70;99.90;;;;;;5023713;28;897;-47
2022/02/01 04:47:09;;;;;;;;;;;13.70;99.90;;;;;;5057773;28;774;-47
2022/02/01 04:49:35;;;;;;;;;;;13.60;99.90;;;;;;5058255;28;788;-47
2022/02/01 04:52:02;;;;;;;;;;;13.60;99.90;;;;;;5057936;28;1504;-46
2022/02/01 04:54:28;;;;;;;;;;;13.60;99.90;;;;;;5057866;28;858;-47
2022/02/01 04:56:54;;;;;;;;;;;13.60;99.90;;;;;;5056002;28;1246;-47
2022/02/01 04:59:20;;;;;;;;;;;13.50;99.90;;;;;;5053248;28;1963;-46
2022/02/01 05:01:46;;;;;;;;;;;13.50;99.90;;;;;;5057308;28;843;-46
2022/02/01 05:04:19;;;;;;;;;;;13.50;99.90;;;;;;5039664;28;895;-47
2022/02/01 05:06:48;;;;;;;;;;;13.50;99.90;;;;;;5057843;28;1341;-46
2022/02/01 05:09:15;;;;;;;;;;;13.50;99.90;;;;;;5035844;28;921;-47
2022/02/01 05:11:41;;;;;;;;;;;13.50;99.90;;;;;;5053713;28;876;-47
2022/02/01 05:14:13;;;;;;;;;;;13.50;99.90;;;;;;5057019;28;1024;-48
2022/02/01 05:22:03;;;;;;;;;;;13.40;99.90;;;;;;5057306;28;793;-48
2022/02/01 05:24:30;;;;;;;;;;;13.40;99.90;;;;;;5056838;28;889;-48
2022/02/01 05:26:57;;;;;;;;;;;13.40;99.90;;;;;;5056528;28;929;-48
2022/02/01 05:29:23;;;;;;;;;;;13.40;99.90;;;;;;5057259;28;952;-48
2022/02/01 05:31:52;;;;;;;;;;;13.40;99.90;;;;;;5056507;28;1020;-48
2022/02/01 05:34:19;;;;;;;;;;;13.40;99.90;;;;;;5057327;28;866;-48
2022/02/01 05:36:45;;;;;;;;;;;13.30;99.90;;;;;;5056682;28;809;-48
2022/02/01 05:39:16;;;;;;;;;;;13.40;99.90;;;;;;5056931;28;918;-48
2022/02/01 05:41:42;;;;;;;;;;;13.30;99.90;;;;;;5056106;28;1910;-48
2022/02/01 05:44:08;;;;;;;;;;;13.30;99.90;;;;;;5056975;28;852;-48
2022/02/01 05:46:37;;;;;;;;;;;13.30;99.90;;;;;;5056881;28;816;-49
2022/02/01 05:49:04;;;;;;;;;;;13.30;99.90;;;;;;5039030;28;877;-48
2022/02/01 05:51:30;;;;;;;;;;;13.30;99.90;;;;;;5056921;28;751;-48
2022/02/01 05:53:56;;;;;;;;;;;13.30;99.90;;;;;;5055819;28;920;-49
2022/02/01 05:56:23;;;;;;;;;;;13.30;99.90;;;;;;5055689;28;893;-48
2022/02/01 05:58:49;;;;;;;;;;;13.20;99.90;;;;;;5056246;28;769;-49
2022/02/01 06:01:18;;;;;;;;;;;13.20;99.90;;;;;;5056114;28;1910;-49
2022/02/01 06:03:44;;;;;;;;;;;13.30;99.90;;;;;;5056474;28;885;-49
2022/02/01 06:06:10;;;;;;;;;;;13.30;99.90;;;;;;5056595;28;880;-48
2022/02/01 06:08:36;;;;;;;;;;;13.30;99.90;;;;;;5056586;28;849;-49
2022/02/01 06:11:03;;;;;;;;;;;13.30;99.90;;;;;;5056240;28;1878;-48
2022/02/01 06:13:29;;;;;;;;;;;13.30;99.90;;;;;;5056477;28;879;-48
2022/02/01 06:15:56;;;;;;;;;;;13.30;99.90;;;;;;5052249;28;933;-48
2022/02/01 06:18:23;;;;;;;;;;;13.40;99.90;;;;;;5056078;28;778;-49
2022/02/01 06:20:51;;;;;;;;;;;13.40;99.90;;;;;;5056211;28;1898;-48
2022/02/01 06:23:18;;;;;;;;;;;13.40;99.90;;;;;;5038695;28;1267;-49
2022/02/01 06:25:48;;;;;;;;;;;13.40;99.90;;;;;;5038227;28;1114;-48
2022/02/01 06:28:15;;;;;;;;;;;13.40;99.90;;;;;;5056240;28;774;-49
2022/02/01 06:30:42;;;;;;;;;;;13.50;99.90;;;;;;5055728;28;835;-48
2022/02/01 06:33:08;;;;;;;;;;;13.60;99.90;;;;;;5055028;28;869;-48
2022/02/01 06:35:34;;;;;;;;;;;13.60;99.90;;;;;;5055763;28;757;-48
2022/02/01 06:38:00;;;;;;;;;;;13.70;99.90;;;;;;5055934;28;949;-48
2022/02/01 06:40:28;;;;;;;;;;;13.70;99.90;;;;;;5055918;28;1902;-49
2022/02/01 06:42:55;;;;;;;;;;;13.80;99.90;;;;;;5055951;28;885;-48
2022/02/01 06:45:23;;;;;;;;;;;13.80;99.90;;;;;;5038583;28;812;-48
2022/02/01 06:47:50;;;;;;;;;;;13.80;99.90;;;;;;5055359;28;817;-48
2022/02/01 06:50:20;;;;;;;;;;;13.90;99.90;;;;;;5055442;28;1338;-48
2022/02/01 06:52:47;;;;;;;;;;;13.90;99.90;;;;;;5055706;28;906;-48
2022/02/01 06:55:14;;;;;;;;;;;14.00;99.90;;;;;;5037748;28;1630;-48
2022/02/01 06:57:40;;;;;;;;;;;14.00;99.90;;;;;;5055392;28;862;-49
2022/02/01 07:00:07;;;;;;;;;;;14.10;99.90;;;;;;5051884;28;1961;-49
2022/02/01 07:02:34;;;;;;;;;;;14.10;99.90;;;;;;5053067;28;989;-48
2022/02/01 07:05:00;;;;;;;;;;;14.10;99.90;;;;;;5038196;28;1672;-48
2022/02/01 07:07:26;;;;;;;;;;;14.20;99.90;;;;;;5055113;28;1011;-55
2022/02/01 07:09:54;;;;;;;;;;;14.20;99.90;;;;;;5055653;28;1717;-55
2022/02/01 07:12:20;;;;;;;;;;;14.20;99.90;;;;;;5054882;28;782;-55
2022/02/01 07:14:46;;;;;;;;;;;14.20;99.90;;;;;;5014168;28;972;-55
2022/02/01 07:17:12;;;;;;;;;;;14.30;99.90;;;;;;5013092;28;950;-56
2022/02/01 07:19:38;;;;;;;;;;;14.30;99.90;;;;;;4997129;28;1673;-56
2022/02/01 07:22:04;;;;;;;;;;;14.40;99.90;;;;;;5014013;28;1902;-55
2022/02/01 07:24:36;;;;;;;;;;;14.40;99.90;;;;;;5014246;28;927;-55
2022/02/01 07:27:11;;;;;;;;;;;14.40;99.90;;;;;;5012979;28;852;-55
2022/02/01 07:29:37;;;;;;;;;;;14.50;99.90;;;;;;5013983;28;990;-55
2022/02/01 07:32:03;;;;;;;;;;;14.50;99.90;;;;;;5012970;28;1226;-55
2022/02/01 07:34:29;;;;;;;;;;;14.60;99.90;;;;;;5014135;28;1018;-55
2022/02/01 07:36:55;;;;;;;;;;;14.60;99.90;;;;;;5014121;28;908;-56
2022/02/01 07:39:21;;;;;;;;;;;14.60;99.90;;;;;;5014199;28;1001;-56
2022/02/01 07:41:47;;;;;;;;;;;14.60;99.90;;;;;;5014000;28;2025;-55
2022/02/01 07:44:13;;;;;;;;;;;14.70;99.90;;;;;;5015143;28;955;-55
2022/02/01 07:46:41;;;;;;;;;;;14.70;99.90;;;;;;5051346;28;1378;-55
2022/02/01 07:49:11;;;;;;;;;;;14.70;99.90;;;;;;5063814;28;985;-48
2022/02/01 07:51:37;;;;;;;;;;;14.80;99.90;;;;;;5041144;28;1637;-48
2022/02/01 07:54:03;;;;;;;;;;;14.80;99.90;;;;;;5056645;28;1025;-48
2022/02/01 07:56:30;;;;;;;;;;;14.80;99.90;;;;;;5059063;28;796;-48
2022/02/01 07:58:56;;;;;;;;;;;14.90;99.90;;;;;;5058294;28;970;-48
2022/02/01 08:01:22;;;;;;;;;;;14.90;99.90;;;;;;5058154;28;1973;-48
2022/02/01 08:03:48;;;;;;;;;;;14.90;99.90;;;;;;5058612;28;778;-49
2022/02/01 08:06:15;;;;;;;;;;;14.90;99.90;;;;;;5050711;28;1006;-52
2022/02/01 08:08:41;;;;;;;;;;;15.00;99.90;;;;;;5057975;28;1000;-49
2022/02/01 08:11:12;;;;;;;;;;;15.00;99.90;;;;;;5058575;28;1035;-49
2022/02/01 08:21:44;;;;;;;;;;;15.10;99.90;;;;;;5058422;28;1970;-56
2022/02/01 08:24:12;;;;;;;;;;;15.10;99.90;;;;;;5056103;28;1123;-55
2022/02/01 08:26:38;;;;;;;;;;;15.10;99.90;;;;;;5057877;28;1304;-55
2022/02/01 08:29:05;;;;;;;;;;;15.20;99.90;;;;;;5058051;28;1161;-55
2022/02/01 08:31:31;;;;;;;;;;;15.20;99.90;;;;;;5058062;28;1336;-55
2022/02/01 08:33:57;;;;;;;;;;;15.20;99.90;;;;;;5038501;28;1107;-55
2022/02/01 08:36:24;;;;;;;;;;;15.30;99.90;;;;;;5057968;28;1179;-55
2022/02/01 08:38:52;;;;;;;;;;;15.30;99.90;;;;;;5040455;28;1186;-55
2022/02/01 08:41:18;;;;;;;;;;;15.30;99.90;;;;;;5056976;28;1914;-55
2022/02/01 08:43:44;;;;;;;;;;;15.30;99.90;;;;;;5057931;28;1115;-55
2022/02/01 08:46:10;;;;;;;;;;;15.30;99.90;;;;;;5056969;28;1273;-56
2022/02/01 08:48:35;;;;;;;;;;;15.40;99.90;;;;;;5057795;28;1351;-55
2022/02/01 08:51:06;;;;;;;;;;;15.40;99.90;;;;;;5056811;28;1127;-55
2022/02/01 08:53:46;;;;;;;;;;;15.40;99.90;;;;;;5050450;28;1190;-55
2022/02/01 08:57:21;;;;;;;;;;;15.40;99.90;;;;;;5049821;28;1176;-55
2022/02/01 08:58:59;;;;;;;;;;;15.40;99.90;;;;;;5049162;28;1789;-56
2022/02/01 09:01:25;;;;;;;;;;;15.40;99.90;;;;;;5054739;28;1985;-56
2022/02/01 09:03:52;;;;;;;;;;;15.40;99.90;;;;;;5055534;28;1246;-55
2022/02/01 09:06:21;;;;;;;;;;;15.40;99.90;;;;;;5057888;28;773;-55
2022/02/01 09:08:47;;;;;;;;;;;15.40;99.90;;;;;;5055412;28;1144;-55
2022/02/01 09:11:14;;;;;;;;;;;15.40;99.90;;;;;;5057527;28;845;-55
2022/02/01 09:13:40;;;;;;;;;;;15.50;99.90;;;;;;5057552;28;824;-55
2022/02/01 09:16:09;;;;;;;;;;;15.50;99.90;;;;;;5054463;28;1160;-56
2022/02/01 09:18:37;;;;;;;;;;;15.50;99.90;;;;;;5056900;28;956;-56
2022/02/01 09:21:05;;;;;;;;;;;15.50;99.90;;;;;;5055300;28;1968;-56
2022/02/01 09:23:32;;;;;;;;;;;15.50;99.90;;;;;;5057295;28;884;-56
2022/02/01 09:26:00;;;;;;;;;;;15.60;99.90;;;;;;5056521;28;928;-56
2022/02/01 09:28:27;;;;;;;;;;;15.60;99.90;;;;;;5057270;28;794;-56
2022/02/01 09:30:53;;;;;;;;;;;15.60;99.90;;;;;;5056712;28;961;-55
2022/02/01 09:33:19;;;;;;;;;;;15.70;99.90;;;;;;5053992;28;1199;-55
2022/02/01 09:35:45;;;;;;;;;;;15.60;99.90;;;;;;5057200;28;782;-55
2022/02/01 09:38:12;;;;;;;;;;;15.70;99.90;;;;;;5054253;28;899;-55
2022/02/01 09:40:42;;;;;;;;;;;15.70;99.90;;;;;;5056826;28;1918;-56
2022/02/01 09:43:09;;;;;;;;;;;15.70;99.90;;;;;;5052672;28;1075;-55
2022/02/01 09:45:37;;;;;;;;;;;15.70;99.90;;;;;;5056715;28;860;-55
2022/02/01 09:48:04;;;;;;;;;;;15.70;99.90;;;;;;5056453;28;897;-56
2022/02/01 09:50:30;;;;;;;;;;;15.70;99.90;;;;;;5056880;28;856;-55
2022/02/01 09:52:56;;;;;;;;;;;15.70;99.90;;;;;;5056270;28;793;-56
2022/02/01 09:55:22;;;;;;;;;;;15.80;99.90;;;;;;5056133;28;899;-55
2022/02/01 09:57:52;;;;;;;;;;;15.80;99.90;;;;;;5056755;28;805;-56
2022/02/01 10:00:21;;;;;;;;;;;15.80;99.90;;;;;;5055571;28;1905;-55
2022/02/01 10:02:53;;;;;;;;;;;15.80;99.90;;;;;;5055459;28;963;-55
2022/02/01 10:05:19;;;;;;;;;;;15.80;99.90;;;;;;5056544;28;829;-55
2022/02/01 10:07:47;;;;;;;;;;;15.80;99.90;;;;;;5054966;28;1231;-55
2022/02/01 10:10:13;;;;;;;;;;;15.80;99.90;;;;;;5038286;28;1119;-55
2022/02/01 10:12:40;;;;;;;;;;;15.90;99.90;;;;;;5055084;28;1270;-55
2022/02/01 10:15:17;;;;;;;;;;;16.00;99.90;;;;;;5055791;28;1071;-55
2022/02/01 10:17:48;;;;;;;;;;;16.10;99.90;;;;;;5054201;28;1134;-55
2022/02/01 10:20:16;;;;;;;;;;;16.20;99.90;;;;;;5056206;28;1913;-55
2022/02/01 10:22:43;;;;;;;;;;;16.30;99.90;;;;;;5055936;28;850;-54
2022/02/01 10:25:23;;;;;;;;;;;16.40;99.90;;;;;;5054816;28;877;-54
2022/02/01 10:27:57;;;;;;;;;;;16.40;99.90;;;;;;5037498;28;1136;-55
2022/02/01 10:30:34;;;;;;;;;;;16.50;99.90;;;;;;5053654;28;1364;-55
2022/02/01 10:33:42;;;;;;;;;;;16.50;99.90;;;;;;5018105;28;1382;-55
2022/02/01 10:36:04;;;;;;;;;;;16.60;99.90;;;;;;5055722;28;1258;-55
2022/02/01 10:38:32;;;;;;;;;;;16.60;99.90;;;;;;5049291;28;1279;-54
2022/02/01 10:40:58;;;;;;;;;;;16.70;99.90;;;;;;5055033;28;1981;-48
2022/02/01 10:43:34;;;;;;;;;;;16.70;99.90;;;;;;5051819;28;1041;-48
2022/02/01 10:46:20;;;;;;;;;;;16.80;99.90;;;;;;5050817;28;1119;-48
2022/02/01 10:48:48;;;;;;;;;;;16.80;99.90;;;;;;5053684;28;1277;-48
2022/02/01 10:51:15;;;;;;;;;;;16.90;99.90;;;;;;5055058;28;1286;-48
2022/02/01 10:53:41;;;;;;;;;;;16.90;99.90;;;;;;5055396;28;1085;-48
2022/02/01 10:56:13;;;;;;;;;;;16.90;99.90;;;;;;5054132;28;1132;-48
2022/02/01 10:58:41;;;;;;;;;;;16.90;99.90;;;;;;5053133;28;1110;-48
2022/02/01 11:01:10;;;;;;;;;;;16.90;99.90;;;;;;5048146;28;1902;-48
2022/02/01 11:03:42;;;;;;;;;;;17.00;99.90;;;;;;5053163;28;1199;-48
2022/02/01 11:06:08;;;;;;;;;;;17.00;99.90;;;;;;5055136;28;1158;-48
2022/02/01 11:08:39;;;;;;;;;;;17.00;99.90;;;;;;5051615;28;1308;-48
2022/02/01 11:11:05;;;;;;;;;;;17.00;99.90;;;;;;5044576;28;1341;-55
2022/02/01 11:13:40;;;;;;;;;;;17.00;99.90;;;;;;5055505;28;869;-55
2022/02/01 11:16:08;;;;;;;;;;;17.00;99.90;;;;;;5055572;28;853;-56
2022/02/01 11:18:36;;;;;;;;;;;17.00;99.90;;;;;;5057079;28;795;-55
2022/02/01 11:21:03;;;;;;;;;;;17.00;99.90;;;;;;5058259;28;1902;-55
2022/02/01 11:23:41;;;;;;;;;;;17.00;99.90;;;;;;5052932;28;1353;-56
2022/02/01 11:26:18;;;;;;;;;;;16.90;99.90;;;;;;5053032;28;1309;-57
2022/02/01 11:29:01;;;;;;;;;;;16.90;99.90;;;;;;5056176;28;779;-55
2022/02/01 11:31:30;;;;;;;;;;;16.90;99.90;;;;;;5056654;28;909;-55
2022/02/01 11:33:56;;;;;;;;;;;16.80;99.90;;;;;;5059091;28;848;-55
2022/02/01 11:36:22;;;;;;;;;;;16.80;99.90;;;;;;5059494;28;857;-55
2022/02/01 11:38:55;;;;;;;;;;;16.80;99.90;;;;;;5059226;28;857;-55
2022/02/01 11:41:34;;;;;;;;;;;16.80;99.90;;;;;;5057863;28;1903;-56
2022/02/01 11:44:26;;;;;;;;;;;16.80;99.90;;;;;;5058141;28;852;-55
2022/02/01 11:47:11;;;;;;;;;;;16.80;99.90;;;;;;5058570;28;1108;-56
2022/02/01 11:49:48;;;;;;;;;;;16.80;99.90;;;;;;5056645;28;793;-56
2022/02/01 11:52:14;;;;;;;;;;;16.80;99.90;;;;;;5058808;28;1018;-48
2022/02/01 11:54:42;;;;;;;;;;;16.70;99.90;;;;;;5058582;28;775;-48
2022/02/01 11:57:15;;;;;;;;;;;16.60;99.90;;;;;;5059027;28;1043;-48
2022/02/01 11:59:50;;;;;;;;;;;16.40;99.90;;;;;;5058612;28;1221;-48
2022/02/01 12:02:43;;;;;;;;;;;16.30;99.90;;;;;;5057058;28;1887;-48
2022/02/01 12:05:28;;;;;;;;;;;16.30;99.90;;;;;;5056400;28;1206;-48
2022/02/01 12:08:09;;;;;;;;;;;16.40;99.90;;;;;;5058758;28;1167;-48
2022/02/01 12:11:02;;;;;;;;;;;16.40;99.90;;;;;;5058303;28;962;-48
2022/02/01 12:13:29;;;;;;;;;;;16.50;99.90;;;;;;5016406;28;945;-48
2022/02/01 12:15:59;;;;;;;;;;;16.50;99.90;;;;;;5016265;28;1058;-48
2022/02/01 12:18:44;;;;;;;;;;;16.60;99.90;;;;;;5016759;28;1065;-48
2022/02/01 12:21:10;;;;;;;;;;;16.60;99.90;;;;;;5016635;28;1914;-48
2022/02/01 12:23:37;;;;;;;;;;;16.60;99.90;;;;;;5000874;28;951;-48
2022/02/01 12:26:03;;;;;;;;;;;16.70;99.90;;;;;;5016438;28;811;-48
2022/02/01 12:28:30;;;;;;;;;;;16.70;99.90;;;;;;5016425;28;1057;-48
2022/02/01 12:31:09;;;;;;;;;;;16.80;99.90;;;;;;5015891;28;1131;-48
2022/02/01 12:33:41;;;;;;;;;;;16.80;99.90;;;;;;5000520;28;1531;-48
2022/02/01 12:36:11;;;;;;;;;;;16.80;99.90;;;;;;4998924;28;1038;-48
2022/02/01 12:38:38;;;;;;;;;;;16.90;99.90;;;;;;5000571;28;790;-48
2022/02/01 12:41:17;;;;;;;;;;;16.90;99.90;;;;;;5016841;28;1906;-48
2022/02/01 12:45:43;;;;;;;;;;;17.00;99.90;;;;;;5012367;28;1036;-48
2022/02/01 12:46:54;;;;;;;;;;;17.00;99.90;;;;;;5013866;28;1029;-48
2022/02/01 12:49:34;;;;;;;;;;;17.00;99.90;;;;;;5019167;28;1373;-48
2022/02/01 12:52:00;;;;;;;;;;;17.10;99.90;;;;;;5036070;28;861;-48
2022/02/01 12:54:36;;;;;;;;;;;17.10;99.90;;;;;;5035848;28;953;-48
2022/02/01 12:57:07;;;;;;;;;;;17.10;99.90;;;;;;5035853;28;767;-48
2022/02/01 12:59:40;;;;;;;;;;;17.10;99.90;;;;;;5037912;28;1258;-48
2022/02/01 13:02:09;;;;;;;;;;;17.10;99.90;;;;;;5055431;28;1910;-48
2022/02/01 13:04:35;;;;;;;;;;;17.10;99.90;;;;;;5055216;28;1253;-48
2022/02/01 13:07:03;;;;;;;;;;;17.10;99.90;;;;;;5054848;28;1271;-48
2022/02/01 13:15:05;;;;;;;;;;;17.20;99.90;;;;;;5055617;28;796;-48
2022/02/01 13:20:07;;;;;;;;;;;17.20;99.90;;;;;;5051994;28;1128;-48
2022/02/01 13:22:34;;;;;;;;;;;17.20;99.90;;;;;;5060375;28;1914;-48
2022/02/01 13:25:04;;;;;;;;;;;17.20;99.90;;;;;;5054777;28;1224;-48
2022/02/01 13:27:31;;;;;;;;;;;17.20;99.90;;;;;;5054397;28;1136;-48
2022/02/01 13:30:00;;;;;;;;;;;17.20;99.90;;;;;;5053552;28;1044;-48
2022/02/01 13:32:37;;;;;;;;;;;17.30;99.90;;;;;;5055536;28;1378;-48
2022/02/01 13:35:04;;;;;;;;;;;17.20;99.90;;;;;;5062350;28;1097;-47
2022/02/01 13:37:31;;;;;;;;;;;17.30;99.90;;;;;;5056840;28;764;-48
2022/02/01 13:39:57;;;;;;;;;;;17.30;99.90;;;;;;5056462;28;1150;-47
2022/02/01 13:42:32;;;;;;;;;;;17.30;99.90;;;;;;5055799;28;1975;-47
2022/02/01 13:45:05;;;;;;;;;;;17.30;99.90;;;;;;5056678;28;867;-47
2022/02/01 13:47:35;;;;;;;;;;;17.30;99.90;;;;;;5056477;28;764;-47
2022/02/01 13:50:06;;;;;;;;;;;17.30;99.90;;;;;;5056899;28;863;-48
2022/02/01 13:52:35;;;;;;;;;;;17.30;99.90;;;;;;5056235;28;962;-55
2022/02/01 13:55:06;;;;;;;;;;;17.30;99.90;;;;;;5056767;28;941;-54
2022/02/01 13:57:33;;;;;;;;;;;17.30;99.90;;;;;;5056253;28;730;-55
2022/02/01 14:00:09;;;;;;;;;;;17.30;99.90;;;;;;5056146;28;1094;-56
2022/02/01 14:02:40;;;;;;;;;;;17.30;99.90;;;;;;5055803;28;1910;-55
2022/02/01 14:05:17;;;;;;;;;;;17.30;99.90;;;;;;5056311;28;770;-55
2022/02/01 14:26:49;;;;;;;;;;;17.30;99.90;;;;;;5051861;28;604;-47
2022/02/01 14:34:46;;;;;;;;;;;17.40;99.90;;;;;;5011737;28;1096;-48
2022/02/01 14:37:25;;;;;;;;;;;17.40;99.90;;;;;;5055467;28;1226;-48
2022/02/01 14:45:03;;;;;;;;;;;17.40;99.90;;;;;;5053476;28;855;-48
2022/02/01 14:47:29;;;;;;;;;;;17.40;99.90;;;;;;5037382;28;1205;-48
2022/02/01 14:49:56;;;;;;;;;;;17.50;99.90;;;;;;5053007;28;1158;-49
2022/02/01 14:52:29;;;;;;;;;;;17.50;99.90;;;;;;5055410;28;868;-48
2022/02/01 14:55:01;;;;;;;;;;;17.50;99.90;;;;;;5055639;28;862;-48
2022/02/01 15:13:22;;;;;;;;;;;17.50;99.90;;;;;;5055409;28;794;-48
2022/02/01 15:15:48;;;;;;;;;;;17.50;99.90;;;;;;5055423;28;813;-48
2022/02/01 15:18:14;;;;;;;;;;;17.50;99.90;;;;;;5054986;28;820;-48
2022/02/01 15:20:40;;;;;;;;;;;17.50;99.90;;;;;;5055093;28;890;-48
2022/02/01 15:23:06;;;;;;;;;;;17.50;99.90;;;;;;5053833;28;1989;-48
2022/02/01 15:25:32;;;;;;;;;;;17.50;99.90;;;;;;5055639;28;878;-48
2022/02/01 15:27:59;;;;;;;;;;;17.60;99.90;;;;;;5054235;28;1013;-48
2022/02/01 15:30:28;;;;;;;;;;;17.60;99.90;;;;;;5055383;28;841;-48
2022/02/01 15:32:54;;;;;;;;;;;17.60;99.90;;;;;;5055038;28;836;-48
2022/02/01 15:35:20;;;;;;;;;;;17.60;99.90;;;;;;5055567;28;939;-48
2022/02/01 15:37:52;;;;;;;;;;;17.60;99.90;;;;;;5055307;28;853;-48
2022/02/01 15:57:23;;;;;;;;;;;17.50;99.90;;;;;;5054922;28;806;-47
2022/02/01 15:59:50;;;;;;;;;;;17.50;99.90;;;;;;5051546;28;1061;-48
2022/02/01 16:02:17;;;;;;;;;;;17.40;99.90;;;;;;5054241;28;1917;-55
2022/02/01 16:04:52;;;;;;;;;;;17.50;99.90;;;;;;5054374;28;1011;-55
2022/02/01 16:07:19;;;;;;;;;;;17.50;99.90;;;;;;5055451;28;1211;-55
2022/02/01 16:10:13;;;;;;;;;;;17.50;99.90;;;;;;5056734;28;1069;-55
2022/02/01 16:12:38;;;;;;;;;;;17.50;99.90;;;;;;5053341;28;1945;-56
2022/02/01 16:15:05;;;;;;;;;;;17.50;99.90;;;;;;5054599;28;1176;-55
2022/02/01 16:17:31;;;;;;;;;;;17.60;99.90;;;;;;5056324;28;750;-55
2022/02/01 16:19:57;;;;;;;;;;;17.60;99.90;;;;;;5058099;28;859;-56
2022/02/01 16:22:23;;;;;;;;;;;17.60;99.90;;;;;;5057562;28;1983;-55
2022/02/01 16:24:49;;;;;;;;;;;17.60;99.90;;;;;;5058524;28;813;-55
2022/02/01 16:27:15;;;;;;;;;;;17.60;99.90;;;;;;5057781;28;973;-55
2022/02/01 16:29:41;;;;;;;;;;;17.60;99.90;;;;;;5058264;28;763;-55
2022/02/01 16:32:10;;;;;;;;;;;17.60;99.90;;;;;;5037348;28;1262;-55
2022/02/01 16:34:38;;;;;;;;;;;17.60;99.90;;;;;;5056755;28;742;-56
2022/02/01 16:37:06;;;;;;;;;;;17.60;99.90;;;;;;5056095;28;836;-56
2022/02/01 16:39:32;;;;;;;;;;;17.60;99.90;;;;;;5056876;28;1189;-48
2022/02/01 16:42:01;;;;;;;;;;;17.60;99.90;;;;;;5022660;28;1973;-48
2022/02/01 16:44:27;;;;;;;;;;;17.60;99.90;;;;;;5057170;28;956;-47
2022/02/01 16:46:53;;;;;;;;;;;17.60;99.90;;;;;;5057291;28;1140;-48
2022/02/01 16:49:19;;;;;;;;;;;17.60;99.90;;;;;;5057024;28;1138;-48
2022/02/01 16:51:46;;;;;;;;;;;17.60;99.90;;;;;;5057653;28;896;-48
2022/02/01 16:54:16;;;;;;;;;;;17.60;99.90;;;;;;5056878;28;1002;-48
2022/02/01 17:01:44;;;;;;;;;;;17.60;99.90;;;;;;5057413;28;1973;-48
2022/02/01 17:04:10;;;;;;;;;;;17.50;99.90;;;;;;5056893;28;1247;-48
2022/02/01 17:06:37;;;;;;;;;;;17.50;99.90;;;;;;5053964;28;1483;-56
2022/02/01 17:09:04;;;;;;;;;;;17.50;99.90;;;;;;5057569;28;1861;-55
2022/02/01 17:22:04;;;;;;;;;;;17.30;99.90;;;;;;5012992;28;1965;-55
2022/02/01 17:24:32;;;;;;;;;;;17.30;99.90;;;;;;5057262;28;844;-55
2022/02/01 17:26:58;;;;;;;;;;;17.30;99.90;;;;;;5057201;28;1218;-55
2022/02/01 17:29:24;;;;;;;;;;;17.20;99.90;;;;;;5057481;28;758;-55
2022/02/01 17:31:50;;;;;;;;;;;17.20;99.90;;;;;;5056569;28;898;-55
2022/02/01 17:34:16;;;;;;;;;;;17.20;99.90;;;;;;5057132;28;803;-55
2022/02/01 17:36:42;;;;;;;;;;;17.20;99.90;;;;;;5057171;28;754;-55
2022/02/01 17:39:11;;;;;;;;;;;17.20;99.90;;;;;;5050553;28;1310;-56
2022/02/01 17:41:39;;;;;;;;;;;17.20;99.90;;;;;;5055973;28;1902;-56